sensor_id;sensor_type;location;lat;lon;timestamp;temperature;humidity
28336;DHT22;15592;53.656;7.276;2023-05-10T00:01:07;14.20;99.90
28336;DHT22;15592;53.656;7.276;2023-05-10T00:03:33;14.20;99.90
28336;DHT22;15592;53.656;7.276;2023-05-10T00:05:58;14.20;99.90
28336;DHT22;15592;53.656;7.276;2023-05-10T00:08:24;14.10;99.90
28336;DHT22;15592;53.656;7.276;2023-05-10T00:10:50;14.10;99.90
28336;DHT22;15592;53.656;7.276;2023-05-10T00:13:15;14.00;99.90
28336;DHT22;15592;53.656;7.276;2023-05-10T00:15:41;14.00;99.90
28336;DHT22;15592;53.656;7.276;2023-05-10T00:18:07;14.00;99.90
28336;DHT22;15592;53.656;7.276;2023-05-10T00:20:32;14.00;99.90
28336;DHT22;15592;53.656;7.276;2023-05-10T00:22:58;13.90;99.90
28336;DHT22;15592;53.656;7.276;2023-05-10T00:25:23;13.90;99.90
28336;DHT22;15592;53.656;7.276;2023-05-10T00:27:49;13.90;99.90
28336;DHT22;15592;53.656;7.276;2023-05-10T00:30:15;13.90;99.90
28336;DHT22;15592;53.656;7.276;2023-05-10T00:32:40;13.90;99.90
28336;DHT22;15592;53.656;7.276;2023-05-10T00:35:06;13.90;99.90
28336;DHT22;15592;53.656;7.276;2023-05-10T00:37:32;13.80;99.90
28336;DHT22;15592;53.656;7.276;2023-05-10T00:39:58;13.80;99.90
28336;DHT22;15592;53.656;7.276;2023-05-10T00:42:24;13.80;99.90
28336;DHT22;15592;53.656;7.276;2023-05-10T00:44:49;13.80;99.90
28336;DHT22;15592;53.656;7.276;2023-05-10T00:47:16;13.80;99.90
28336;DHT22;15592;53.656;7.276;2023-05-10T00:49:42;13.80;99.90
28336;DHT22;15592;53.656;7.276;2023-05-10T00:52:08;13.80;99.90
28336;DHT22;15592;53.656;7.276;2023-05-10T00:54:34;13.80;99.90
28336;DHT22;15592;53.656;7.276;2023-05-10T00:57:00;13.80;99.90
28336;DHT22;15592;53.656;7.276;2023-05-10T00:59:25;13.70;99.90
28336;DHT22;15592;53.656;7.276;2023-05-10T01:01:52;13.70;99.90
28336;DHT22;15592;53.656;7.276;2023-05-10T01:04:18;13.70;99.90
28336;DHT22;15592;53.656;7.276;2023-05-10T01:06:45;13.70;99.90
28336;DHT22;15592;53.656;7.276;2023-05-10T01:09:11;13.70;99.90
28336;DHT22;15592;53.656;7.276;2023-05-10T01:11:38;13.70;99.90
28336;DHT22;15592;53.656;7.276;2023-05-10T01:14:05;13.70;99.90
28336;DHT22;15592;53.656;7.276;2023-05-10T01:16:35;13.70;99.90
28336;DHT22;15592;53.656;7.276;2023-05-10T01:19:01;13.70;99.90
28336;DHT22;15592;53.656;7.276;2023-05-10T01:35:17;13.70;99.90
28336;DHT22;15592;53.656;7.276;2023-05-10T01:40:39;13.60;99.90
28336;DHT22;15592;53.656;7.276;2023-05-10T01:43:13;13.60;99.90
28336;DHT22;15592;53.656;7.276;2023-05-10T01:46:07;13.60;99.90
28336;DHT22;15592;53.656;7.276;2023-05-10T01:48:42;13.60;99.90
28336;DHT22;15592;53.656;7.276;2023-05-10T01:51:14;13.60;99.90
28336;DHT22;15592;53.656;7.276;2023-05-10T01:53:42;13.60;99.90
28336;DHT22;15592;53.656;7.276;2023-05-10T01:56:11;13.60;99.90
28336;DHT22;15592;53.656;7.276;2023-05-10T01:58:39;13.60;99.90
28336;DHT22;15592;53.656;7.276;2023-05-10T02:01:07;13.60;99.90
28336;DHT22;15592;53.656;7.276;2023-05-10T02:03:35;13.60;99.90
28336;DHT22;15592;53.656;7.276;2023-05-10T02:06:02;13.60;99.90
28336;DHT22;15592;53.656;7.276;2023-05-10T02:08:29;13.60;99.90
28336;DHT22;15592;53.656;7.276;2023-05-10T02:10:56;13.60;99.90
28336;DHT22;15592;53.656;7.276;2023-05-10T02:13:24;13.60;99.90
28336;DHT22;15592;53.656;7.276;2023-05-10T02:15:51;13.60;99.90
28336;DHT22;15592;53.656;7.276;2023-05-10T02:18:18;13.60;99.90
28336;DHT22;15592;53.656;7.276;2023-05-10T02:20:46;13.60;99.90
28336;DHT22;15592;53.656;7.276;2023-05-10T02:23:13;13.60;99.90
28336;DHT22;15592;53.656;7.276;2023-05-10T02:25:39;13.60;99.90
28336;DHT22;15592;53.656;7.276;2023-05-10T02:28:07;13.60;99.90
28336;DHT22;15592;53.656;7.276;2023-05-10T02:30:34;13.60;99.90
28336;DHT22;15592;53.656;7.276;2023-05-10T02:33:01;13.60;99.90
28336;DHT22;15592;53.656;7.276;2023-05-10T02:35:27;13.60;99.90
28336;DHT22;15592;53.656;7.276;2023-05-10T02:37:54;13.50;99.90
28336;DHT22;15592;53.656;7.276;2023-05-10T02:40:21;13.50;99.90
28336;DHT22;15592;53.656;7.276;2023-05-10T02:42:48;13.50;99.90
28336;DHT22;15592;53.656;7.276;2023-05-10T02:45:19;13.40;99.90
28336;DHT22;15592;53.656;7.276;2023-05-10T02:47:45;13.40;99.90
28336;DHT22;15592;53.656;7.276;2023-05-10T02:50:11;13.40;99.90
28336;DHT22;15592;53.656;7.276;2023-05-10T02:52:40;13.30;99.90
28336;DHT22;15592;53.656;7.276;2023-05-10T02:55:09;13.30;99.90
28336;DHT22;15592;53.656;7.276;2023-05-10T02:57:41;13.30;99.90
28336;DHT22;15592;53.656;7.276;2023-05-10T03:00:08;13.30;99.90
28336;DHT22;15592;53.656;7.276;2023-05-10T03:02:34;13.30;99.90
28336;DHT22;15592;53.656;7.276;2023-05-10T03:05:01;13.30;99.90
28336;DHT22;15592;53.656;7.276;2023-05-10T03:07:28;13.30;99.90
28336;DHT22;15592;53.656;7.276;2023-05-10T03:09:53;13.30;99.90
28336;DHT22;15592;53.656;7.276;2023-05-10T03:18:21;13.20;99.90
28336;DHT22;15592;53.656;7.276;2023-05-10T03:20:47;13.20;99.90
28336;DHT22;15592;53.656;7.276;2023-05-10T03:23:35;13.20;99.90
28336;DHT22;15592;53.656;7.276;2023-05-10T03:26:06;13.20;99.90
28336;DHT22;15592;53.656;7.276;2023-05-10T03:28:33;13.20;99.90
28336;DHT22;15592;53.656;7.276;2023-05-10T03:31:00;13.20;99.90
28336;DHT22;15592;53.656;7.276;2023-05-10T03:33:26;13.20;99.90
28336;DHT22;15592;53.656;7.276;2023-05-10T03:35:51;13.10;99.90
28336;DHT22;15592;53.656;7.276;2023-05-10T03:38:17;13.10;99.90
28336;DHT22;15592;53.656;7.276;2023-05-10T03:40:42;13.10;99.90
28336;DHT22;15592;53.656;7.276;2023-05-10T03:43:08;13.10;99.90
28336;DHT22;15592;53.656;7.276;2023-05-10T03:45:33;13.10;99.90
28336;DHT22;15592;53.656;7.276;2023-05-10T03:48:00;13.10;99.90
28336;DHT22;15592;53.656;7.276;2023-05-10T03:50:25;13.00;99.90
28336;DHT22;15592;53.656;7.276;2023-05-10T03:52:51;13.00;99.90
28336;DHT22;15592;53.656;7.276;2023-05-10T03:55:17;13.00;99.90
28336;DHT22;15592;53.656;7.276;2023-05-10T03:57:43;13.00;99.90
28336;DHT22;15592;53.656;7.276;2023-05-10T04:00:09;13.00;99.90
28336;DHT22;15592;53.656;7.276;2023-05-10T04:02:35;13.00;99.90
28336;DHT22;15592;53.656;7.276;2023-05-10T04:05:01;13.00;99.90
28336;DHT22;15592;53.656;7.276;2023-05-10T04:07:27;13.00;99.90
28336;DHT22;15592;53.656;7.276;2023-05-10T04:09:52;13.00;99.90
28336;DHT22;15592;53.656;7.276;2023-05-10T04:12:18;13.00;99.90
28336;DHT22;15592;53.656;7.276;2023-05-10T04:14:43;13.00;99.90
28336;DHT22;15592;53.656;7.276;2023-05-10T04:17:09;12.90;99.90
28336;DHT22;15592;53.656;7.276;2023-05-10T04:19:35;13.00;99.90
28336;DHT22;15592;53.656;7.276;2023-05-10T04:22:02;12.90;99.90
28336;DHT22;15592;53.656;7.276;2023-05-10T04:24:28;13.00;99.90
28336;DHT22;15592;53.656;7.276;2023-05-10T04:26:54;13.00;99.90
28336;DHT22;15592;53.656;7.276;2023-05-10T04:29:20;13.00;99.90
28336;DHT22;15592;53.656;7.276;2023-05-10T04:31:46;13.00;99.90
28336;DHT22;15592;53.656;7.276;2023-05-10T04:34:11;13.00;99.90
28336;DHT22;15592;53.656;7.276;2023-05-10T04:36:37;13.00;99.90
28336;DHT22;15592;53.656;7.276;2023-05-10T04:39:03;13.00;99.90
28336;DHT22;15592;53.656;7.276;2023-05-10T04:41:29;13.00;99.90
28336;DHT22;15592;53.656;7.276;2023-05-10T04:43:55;13.00;99.90
28336;DHT22;15592;53.656;7.276;2023-05-10T04:46:20;13.00;99.90
28336;DHT22;15592;53.656;7.276;2023-05-10T04:48:46;13.00;99.90
28336;DHT22;15592;53.656;7.276;2023-05-10T04:51:11;13.00;99.90
28336;DHT22;15592;53.656;7.276;2023-05-10T04:53:37;13.00;99.90
28336;DHT22;15592;53.656;7.276;2023-05-10T04:56:03;13.00;99.90
28336;DHT22;15592;53.656;7.276;2023-05-10T04:58:29;13.00;99.90
28336;DHT22;15592;53.656;7.276;2023-05-10T05:00:55;13.00;99.90
28336;DHT22;15592;53.656;7.276;2023-05-10T05:03:20;13.00;99.90
28336;DHT22;15592;53.656;7.276;2023-05-10T05:05:46;13.00;99.90
28336;DHT22;15592;53.656;7.276;2023-05-10T05:08:11;12.90;99.90
28336;DHT22;15592;53.656;7.276;2023-05-10T05:10:38;13.00;99.90
28336;DHT22;15592;53.656;7.276;2023-05-10T05:13:03;13.00;99.90
28336;DHT22;15592;53.656;7.276;2023-05-10T05:15:29;13.00;99.90
28336;DHT22;15592;53.656;7.276;2023-05-10T05:17:55;13.00;99.90
28336;DHT22;15592;53.656;7.276;2023-05-10T05:20:21;13.00;99.90
28336;DHT22;15592;53.656;7.276;2023-05-10T05:22:47;13.00;99.90
28336;DHT22;15592;53.656;7.276;2023-05-10T05:25:13;13.00;99.90
28336;DHT22;15592;53.656;7.276;2023-05-10T05:27:38;13.00;99.90
28336;DHT22;15592;53.656;7.276;2023-05-10T05:30:04;13.10;99.90
28336;DHT22;15592;53.656;7.276;2023-05-10T05:32:30;13.10;99.90
28336;DHT22;15592;53.656;7.276;2023-05-10T05:34:56;13.10;99.90
28336;DHT22;15592;53.656;7.276;2023-05-10T05:37:22;13.10;99.90
28336;DHT22;15592;53.656;7.276;2023-05-10T05:39:48;13.10;99.90
28336;DHT22;15592;53.656;7.276;2023-05-10T05:42:14;13.10;99.90
28336;DHT22;15592;53.656;7.276;2023-05-10T05:44:41;13.20;99.90
28336;DHT22;15592;53.656;7.276;2023-05-10T05:47:07;13.20;99.90
28336;DHT22;15592;53.656;7.276;2023-05-10T05:49:33;13.20;99.90
28336;DHT22;15592;53.656;7.276;2023-05-10T05:51:59;13.20;99.90
28336;DHT22;15592;53.656;7.276;2023-05-10T05:54:26;13.20;99.90
28336;DHT22;15592;53.656;7.276;2023-05-10T05:56:54;13.30;99.90
28336;DHT22;15592;53.656;7.276;2023-05-10T05:59:20;13.20;99.90
28336;DHT22;15592;53.656;7.276;2023-05-10T06:01:46;13.20;99.90
28336;DHT22;15592;53.656;7.276;2023-05-10T06:04:12;13.20;99.90
28336;DHT22;15592;53.656;7.276;2023-05-10T06:06:37;13.20;99.90
28336;DHT22;15592;53.656;7.276;2023-05-10T06:09:03;13.20;99.90
28336;DHT22;15592;53.656;7.276;2023-05-10T06:11:29;13.20;99.90
28336;DHT22;15592;53.656;7.276;2023-05-10T06:13:56;13.30;99.90
28336;DHT22;15592;53.656;7.276;2023-05-10T06:16:21;13.30;99.90
28336;DHT22;15592;53.656;7.276;2023-05-10T06:18:47;13.30;99.90
28336;DHT22;15592;53.656;7.276;2023-05-10T06:21:13;13.30;99.90
28336;DHT22;15592;53.656;7.276;2023-05-10T06:23:39;13.30;99.90
28336;DHT22;15592;53.656;7.276;2023-05-10T06:26:04;13.30;99.90
28336;DHT22;15592;53.656;7.276;2023-05-10T06:28:30;13.30;99.90
28336;DHT22;15592;53.656;7.276;2023-05-10T06:30:57;13.30;99.90
28336;DHT22;15592;53.656;7.276;2023-05-10T06:33:23;13.30;99.90
28336;DHT22;15592;53.656;7.276;2023-05-10T06:35:48;13.30;99.90
28336;DHT22;15592;53.656;7.276;2023-05-10T06:38:14;13.30;99.90
28336;DHT22;15592;53.656;7.276;2023-05-10T06:40:43;13.30;99.90
28336;DHT22;15592;53.656;7.276;2023-05-10T06:43:09;13.40;99.90
28336;DHT22;15592;53.656;7.276;2023-05-10T06:45:35;13.40;99.90
28336;DHT22;15592;53.656;7.276;2023-05-10T06:48:01;13.40;99.90
28336;DHT22;15592;53.656;7.276;2023-05-10T06:50:27;13.40;99.90
28336;DHT22;15592;53.656;7.276;2023-05-10T06:52:52;13.40;99.90
28336;DHT22;15592;53.656;7.276;2023-05-10T06:55:18;13.40;99.90
28336;DHT22;15592;53.656;7.276;2023-05-10T06:57:44;13.40;99.90
28336;DHT22;15592;53.656;7.276;2023-05-10T07:00:09;13.40;99.90
28336;DHT22;15592;53.656;7.276;2023-05-10T07:02:35;13.40;99.90
28336;DHT22;15592;53.656;7.276;2023-05-10T07:05:01;13.40;99.90
28336;DHT22;15592;53.656;7.276;2023-05-10T07:07:27;13.40;99.90
28336;DHT22;15592;53.656;7.276;2023-05-10T07:09:54;13.40;99.90
28336;DHT22;15592;53.656;7.276;2023-05-10T07:12:20;13.40;99.90
28336;DHT22;15592;53.656;7.276;2023-05-10T07:14:45;13.40;99.90
28336;DHT22;15592;53.656;7.276;2023-05-10T07:17:11;13.50;99.90
28336;DHT22;15592;53.656;7.276;2023-05-10T07:19:37;13.50;99.90
28336;DHT22;15592;53.656;7.276;2023-05-10T07:22:03;13.60;99.90
28336;DHT22;15592;53.656;7.276;2023-05-10T07:24:28;13.60;99.90
28336;DHT22;15592;53.656;7.276;2023-05-10T07:26:54;13.60;99.90
28336;DHT22;15592;53.656;7.276;2023-05-10T07:29:20;13.70;99.90
28336;DHT22;15592;53.656;7.276;2023-05-10T07:31:45;13.80;99.90
28336;DHT22;15592;53.656;7.276;2023-05-10T07:34:11;13.80;99.90
28336;DHT22;15592;53.656;7.276;2023-05-10T07:36:37;13.90;99.90
28336;DHT22;15592;53.656;7.276;2023-05-10T07:39:02;14.00;99.90
28336;DHT22;15592;53.656;7.276;2023-05-10T07:41:28;14.00;99.90
28336;DHT22;15592;53.656;7.276;2023-05-10T07:43:53;14.10;99.90
28336;DHT22;15592;53.656;7.276;2023-05-10T07:46:19;14.20;99.90
28336;DHT22;15592;53.656;7.276;2023-05-10T07:48:45;14.20;99.90
28336;DHT22;15592;53.656;7.276;2023-05-10T07:51:11;14.30;99.90
28336;DHT22;15592;53.656;7.276;2023-05-10T07:53:37;14.30;99.90
28336;DHT22;15592;53.656;7.276;2023-05-10T07:56:26;14.40;99.90
28336;DHT22;15592;53.656;7.276;2023-05-10T07:58:58;14.40;99.90
28336;DHT22;15592;53.656;7.276;2023-05-10T08:01:24;14.40;99.90
28336;DHT22;15592;53.656;7.276;2023-05-10T08:03:50;14.40;99.90
28336;DHT22;15592;53.656;7.276;2023-05-10T08:06:20;14.30;99.90
28336;DHT22;15592;53.656;7.276;2023-05-10T08:08:46;14.30;99.90
28336;DHT22;15592;53.656;7.276;2023-05-10T08:11:16;14.30;99.90
28336;DHT22;15592;53.656;7.276;2023-05-10T08:13:42;14.30;99.90
28336;DHT22;15592;53.656;7.276;2023-05-10T08:16:07;14.40;99.90
28336;DHT22;15592;53.656;7.276;2023-05-10T08:18:33;14.40;99.90
28336;DHT22;15592;53.656;7.276;2023-05-10T08:20:58;14.30;99.90
28336;DHT22;15592;53.656;7.276;2023-05-10T08:23:24;14.20;99.90
28336;DHT22;15592;53.656;7.276;2023-05-10T08:25:50;14.10;99.90
28336;DHT22;15592;53.656;7.276;2023-05-10T08:28:15;14.00;99.90
28336;DHT22;15592;53.656;7.276;2023-05-10T08:30:41;14.00;99.90
28336;DHT22;15592;53.656;7.276;2023-05-10T08:33:06;14.00;99.90
28336;DHT22;15592;53.656;7.276;2023-05-10T08:35:32;13.90;99.90
28336;DHT22;15592;53.656;7.276;2023-05-10T08:37:59;13.90;99.90
28336;DHT22;15592;53.656;7.276;2023-05-10T08:40:26;13.90;99.90
28336;DHT22;15592;53.656;7.276;2023-05-10T08:43:07;13.90;99.90
28336;DHT22;15592;53.656;7.276;2023-05-10T08:45:37;13.90;99.90
28336;DHT22;15592;53.656;7.276;2023-05-10T08:48:05;13.90;99.90
28336;DHT22;15592;53.656;7.276;2023-05-10T08:50:32;13.90;99.90
28336;DHT22;15592;53.656;7.276;2023-05-10T08:53:00;13.90;99.90
28336;DHT22;15592;53.656;7.276;2023-05-10T08:55:27;13.90;99.90
28336;DHT22;15592;53.656;7.276;2023-05-10T08:57:53;13.90;99.90
28336;DHT22;15592;53.656;7.276;2023-05-10T09:00:19;13.80;99.90
28336;DHT22;15592;53.656;7.276;2023-05-10T09:02:45;13.70;99.90
28336;DHT22;15592;53.656;7.276;2023-05-10T09:05:12;13.70;99.90
28336;DHT22;15592;53.656;7.276;2023-05-10T09:07:37;13.80;99.90
28336;DHT22;15592;53.656;7.276;2023-05-10T09:10:04;13.80;99.90
28336;DHT22;15592;53.656;7.276;2023-05-10T09:12:30;13.80;99.90
28336;DHT22;15592;53.656;7.276;2023-05-10T09:14:55;13.80;99.90
28336;DHT22;15592;53.656;7.276;2023-05-10T09:17:24;13.60;99.90
28336;DHT22;15592;53.656;7.276;2023-05-10T09:19:49;13.60;99.90
28336;DHT22;15592;53.656;7.276;2023-05-10T09:22:15;13.50;99.90
28336;DHT22;15592;53.656;7.276;2023-05-10T09:24:43;13.50;99.90
28336;DHT22;15592;53.656;7.276;2023-05-10T09:27:10;13.40;99.90
28336;DHT22;15592;53.656;7.276;2023-05-10T09:29:42;13.50;99.90
28336;DHT22;15592;53.656;7.276;2023-05-10T09:32:08;13.50;99.90
28336;DHT22;15592;53.656;7.276;2023-05-10T09:34:34;13.40;99.90
28336;DHT22;15592;53.656;7.276;2023-05-10T09:37:05;13.40;99.90
28336;DHT22;15592;53.656;7.276;2023-05-10T09:39:32;13.30;99.90
28336;DHT22;15592;53.656;7.276;2023-05-10T09:41:59;13.30;99.90
28336;DHT22;15592;53.656;7.276;2023-05-10T09:44:26;13.30;99.90
28336;DHT22;15592;53.656;7.276;2023-05-10T09:46:52;13.20;99.90
28336;DHT22;15592;53.656;7.276;2023-05-10T09:49:19;13.20;99.90
28336;DHT22;15592;53.656;7.276;2023-05-10T09:51:45;13.20;99.90
28336;DHT22;15592;53.656;7.276;2023-05-10T09:54:15;13.20;99.90
28336;DHT22;15592;53.656;7.276;2023-05-10T09:56:42;13.20;99.90
28336;DHT22;15592;53.656;7.276;2023-05-10T09:59:10;13.20;99.90
28336;DHT22;15592;53.656;7.276;2023-05-10T10:01:37;13.20;99.90
28336;DHT22;15592;53.656;7.276;2023-05-10T10:04:06;13.20;99.90
28336;DHT22;15592;53.656;7.276;2023-05-10T10:06:41;13.20;99.90
28336;DHT22;15592;53.656;7.276;2023-05-10T10:09:08;13.20;99.90
28336;DHT22;15592;53.656;7.276;2023-05-10T10:11:35;13.30;99.90
28336;DHT22;15592;53.656;7.276;2023-05-10T10:14:01;13.30;99.90
28336;DHT22;15592;53.656;7.276;2023-05-10T10:16:29;13.40;99.90
28336;DHT22;15592;53.656;7.276;2023-05-10T10:18:55;13.50;99.90
28336;DHT22;15592;53.656;7.276;2023-05-10T10:21:22;13.60;99.90
28336;DHT22;15592;53.656;7.276;2023-05-10T10:23:47;13.60;99.90
28336;DHT22;15592;53.656;7.276;2023-05-10T10:26:14;13.60;99.90
28336;DHT22;15592;53.656;7.276;2023-05-10T10:32:21;13.60;99.90
28336;DHT22;15592;53.656;7.276;2023-05-10T10:34:49;13.70;99.90
28336;DHT22;15592;53.656;7.276;2023-05-10T10:37:15;13.60;99.90
28336;DHT22;15592;53.656;7.276;2023-05-10T10:39:41;13.60;99.90
28336;DHT22;15592;53.656;7.276;2023-05-10T10:42:07;13.60;99.90
28336;DHT22;15592;53.656;7.276;2023-05-10T10:47:07;13.40;99.90
28336;DHT22;15592;53.656;7.276;2023-05-10T10:52:27;13.40;99.90
28336;DHT22;15592;53.656;7.276;2023-05-10T10:55:17;13.40;99.90
28336;DHT22;15592;53.656;7.276;2023-05-10T11:00:24;13.50;99.90
28336;DHT22;15592;53.656;7.276;2023-05-10T11:02:57;13.50;99.90
28336;DHT22;15592;53.656;7.276;2023-05-10T11:08:17;13.60;99.90
28336;DHT22;15592;53.656;7.276;2023-05-10T11:13:50;13.60;99.90
28336;DHT22;15592;53.656;7.276;2023-05-10T11:16:24;13.60;99.90
28336;DHT22;15592;53.656;7.276;2023-05-10T11:19:02;13.60;99.90
28336;DHT22;15592;53.656;7.276;2023-05-10T11:21:29;13.60;99.90
28336;DHT22;15592;53.656;7.276;2023-05-10T11:23:57;13.60;99.90
28336;DHT22;15592;53.656;7.276;2023-05-10T11:26:31;13.60;99.90
28336;DHT22;15592;53.656;7.276;2023-05-10T11:28:57;13.60;99.90
28336;DHT22;15592;53.656;7.276;2023-05-10T11:31:26;13.70;99.90
28336;DHT22;15592;53.656;7.276;2023-05-10T11:33:54;13.70;99.90
28336;DHT22;15592;53.656;7.276;2023-05-10T11:36:21;13.70;99.90
28336;DHT22;15592;53.656;7.276;2023-05-10T11:38:48;13.80;99.90
28336;DHT22;15592;53.656;7.276;2023-05-10T11:41:16;13.80;99.90
28336;DHT22;15592;53.656;7.276;2023-05-10T11:43:42;13.90;99.90
28336;DHT22;15592;53.656;7.276;2023-05-10T11:46:11;13.90;99.90
28336;DHT22;15592;53.656;7.276;2023-05-10T11:48:39;13.90;99.90
28336;DHT22;15592;53.656;7.276;2023-05-10T11:51:06;13.90;99.90
28336;DHT22;15592;53.656;7.276;2023-05-10T11:53:32;13.80;99.90
28336;DHT22;15592;53.656;7.276;2023-05-10T11:56:09;13.80;99.90
28336;DHT22;15592;53.656;7.276;2023-05-10T11:58:36;13.80;99.90
28336;DHT22;15592;53.656;7.276;2023-05-10T12:01:03;13.90;99.90
28336;DHT22;15592;53.656;7.276;2023-05-10T12:03:29;14.00;99.90
28336;DHT22;15592;53.656;7.276;2023-05-10T12:05:56;14.10;99.90
28336;DHT22;15592;53.656;7.276;2023-05-10T12:08:27;14.10;99.90
28336;DHT22;15592;53.656;7.276;2023-05-10T12:10:53;14.10;99.90
28336;DHT22;15592;53.656;7.276;2023-05-10T12:13:19;14.00;99.90
28336;DHT22;15592;53.656;7.276;2023-05-10T12:15:47;14.00;99.90
28336;DHT22;15592;53.656;7.276;2023-05-10T12:18:13;14.10;99.90
28336;DHT22;15592;53.656;7.276;2023-05-10T12:20:40;14.10;99.90
28336;DHT22;15592;53.656;7.276;2023-05-10T12:23:08;14.20;99.90
28336;DHT22;15592;53.656;7.276;2023-05-10T12:25:36;14.30;99.90
28336;DHT22;15592;53.656;7.276;2023-05-10T12:28:07;14.40;99.90
28336;DHT22;15592;53.656;7.276;2023-05-10T12:30:34;14.40;99.90
28336;DHT22;15592;53.656;7.276;2023-05-10T12:33:14;14.50;99.90
28336;DHT22;15592;53.656;7.276;2023-05-10T12:35:48;14.60;99.90
28336;DHT22;15592;53.656;7.276;2023-05-10T12:41:03;14.60;99.90
28336;DHT22;15592;53.656;7.276;2023-05-10T12:43:30;14.60;99.90
28336;DHT22;15592;53.656;7.276;2023-05-10T12:45:56;14.60;99.90
28336;DHT22;15592;53.656;7.276;2023-05-10T12:48:22;14.60;99.90
28336;DHT22;15592;53.656;7.276;2023-05-10T12:50:48;14.70;99.90
28336;DHT22;15592;53.656;7.276;2023-05-10T12:53:14;14.80;99.90
28336;DHT22;15592;53.656;7.276;2023-05-10T12:55:44;14.80;99.90
28336;DHT22;15592;53.656;7.276;2023-05-10T12:58:10;14.70;99.90
28336;DHT22;15592;53.656;7.276;2023-05-10T13:00:35;14.70;99.90
28336;DHT22;15592;53.656;7.276;2023-05-10T13:03:04;14.70;99.90
28336;DHT22;15592;53.656;7.276;2023-05-10T13:05:32;14.60;99.90
28336;DHT22;15592;53.656;7.276;2023-05-10T13:07:57;14.50;99.90
28336;DHT22;15592;53.656;7.276;2023-05-10T13:10:23;14.30;99.90
28336;DHT22;15592;53.656;7.276;2023-05-10T13:12:49;14.20;99.90
28336;DHT22;15592;53.656;7.276;2023-05-10T13:15:14;14.20;99.90
28336;DHT22;15592;53.656;7.276;2023-05-10T13:17:40;14.20;99.90
28336;DHT22;15592;53.656;7.276;2023-05-10T13:20:08;14.20;99.90
28336;DHT22;15592;53.656;7.276;2023-05-10T13:22:35;14.10;99.90
28336;DHT22;15592;53.656;7.276;2023-05-10T13:25:01;14.00;99.90
28336;DHT22;15592;53.656;7.276;2023-05-10T13:27:26;14.00;99.90
28336;DHT22;15592;53.656;7.276;2023-05-10T13:29:52;14.00;99.90
28336;DHT22;15592;53.656;7.276;2023-05-10T13:32:17;13.90;99.90
28336;DHT22;15592;53.656;7.276;2023-05-10T13:34:43;13.90;99.90
28336;DHT22;15592;53.656;7.276;2023-05-10T13:37:09;13.90;99.90
28336;DHT22;15592;53.656;7.276;2023-05-10T13:39:35;13.90;99.90
28336;DHT22;15592;53.656;7.276;2023-05-10T13:42:03;13.90;99.90
28336;DHT22;15592;53.656;7.276;2023-05-10T13:44:29;13.90;99.90
28336;DHT22;15592;53.656;7.276;2023-05-10T13:46:55;13.90;99.90
28336;DHT22;15592;53.656;7.276;2023-05-10T13:49:21;13.90;99.90
28336;DHT22;15592;53.656;7.276;2023-05-10T13:51:47;13.80;99.90
28336;DHT22;15592;53.656;7.276;2023-05-10T13:54:13;13.80;99.90
28336;DHT22;15592;53.656;7.276;2023-05-10T13:56:39;13.80;99.90
28336;DHT22;15592;53.656;7.276;2023-05-10T13:59:06;13.80;99.90
28336;DHT22;15592;53.656;7.276;2023-05-10T14:01:33;13.80;99.90
28336;DHT22;15592;53.656;7.276;2023-05-10T14:03:59;13.70;99.90
28336;DHT22;15592;53.656;7.276;2023-05-10T14:06:24;13.70;99.90
28336;DHT22;15592;53.656;7.276;2023-05-10T14:08:50;13.70;99.90
28336;DHT22;15592;53.656;7.276;2023-05-10T14:11:15;13.70;99.90
28336;DHT22;15592;53.656;7.276;2023-05-10T14:13:41;13.80;99.90
28336;DHT22;15592;53.656;7.276;2023-05-10T14:16:07;13.80;99.90
28336;DHT22;15592;53.656;7.276;2023-05-10T14:18:32;13.80;99.90
28336;DHT22;15592;53.656;7.276;2023-05-10T14:20:58;13.80;99.90
28336;DHT22;15592;53.656;7.276;2023-05-10T14:23:24;13.70;99.90
28336;DHT22;15592;53.656;7.276;2023-05-10T14:25:52;13.70;99.90
28336;DHT22;15592;53.656;7.276;2023-05-10T14:28:18;13.70;99.90
28336;DHT22;15592;53.656;7.276;2023-05-10T14:30:45;13.70;99.90
28336;DHT22;15592;53.656;7.276;2023-05-10T14:33:11;13.70;99.90
28336;DHT22;15592;53.656;7.276;2023-05-10T14:35:37;13.70;99.90
28336;DHT22;15592;53.656;7.276;2023-05-10T14:38:03;13.70;99.90
28336;DHT22;15592;53.656;7.276;2023-05-10T14:40:29;13.80;99.90
28336;DHT22;15592;53.656;7.276;2023-05-10T14:42:55;13.80;99.90
28336;DHT22;15592;53.656;7.276;2023-05-10T14:45:21;13.80;99.90
28336;DHT22;15592;53.656;7.276;2023-05-10T14:47:48;13.80;99.90
28336;DHT22;15592;53.656;7.276;2023-05-10T14:50:14;13.80;99.90
28336;DHT22;15592;53.656;7.276;2023-05-10T14:52:39;13.80;99.90
28336;DHT22;15592;53.656;7.276;2023-05-10T14:55:05;13.80;99.90
28336;DHT22;15592;53.656;7.276;2023-05-10T14:57:31;13.90;99.90
28336;DHT22;15592;53.656;7.276;2023-05-10T14:59:57;13.90;99.90
28336;DHT22;15592;53.656;7.276;2023-05-10T15:02:23;13.90;99.90
28336;DHT22;15592;53.656;7.276;2023-05-10T15:04:49;13.80;99.90
28336;DHT22;15592;53.656;7.276;2023-05-10T15:07:15;13.80;99.90
28336;DHT22;15592;53.656;7.276;2023-05-10T15:09:42;13.80;99.90
28336;DHT22;15592;53.656;7.276;2023-05-10T15:12:08;13.80;99.90
28336;DHT22;15592;53.656;7.276;2023-05-10T15:14:34;13.70;99.90
28336;DHT22;15592;53.656;7.276;2023-05-10T15:17:01;13.70;99.90
28336;DHT22;15592;53.656;7.276;2023-05-10T15:19:27;13.60;99.90
28336;DHT22;15592;53.656;7.276;2023-05-10T15:21:54;13.60;99.90
28336;DHT22;15592;53.656;7.276;2023-05-10T15:24:21;13.60;99.90
28336;DHT22;15592;53.656;7.276;2023-05-10T15:26:47;13.50;99.90
28336;DHT22;15592;53.656;7.276;2023-05-10T15:29:13;13.50;99.90
28336;DHT22;15592;53.656;7.276;2023-05-10T15:31:48;13.50;99.90
28336;DHT22;15592;53.656;7.276;2023-05-10T15:34:14;13.50;99.90
28336;DHT22;15592;53.656;7.276;2023-05-10T15:36:40;13.60;99.90
28336;DHT22;15592;53.656;7.276;2023-05-10T15:39:05;13.50;99.90
28336;DHT22;15592;53.656;7.276;2023-05-10T15:41:31;13.50;99.90
28336;DHT22;15592;53.656;7.276;2023-05-10T15:43:57;13.60;99.90
28336;DHT22;15592;53.656;7.276;2023-05-10T15:46:25;13.60;99.90
28336;DHT22;15592;53.656;7.276;2023-05-10T15:48:51;13.60;99.90
28336;DHT22;15592;53.656;7.276;2023-05-10T15:51:17;13.60;99.90
28336;DHT22;15592;53.656;7.276;2023-05-10T15:53:44;13.70;99.90
28336;DHT22;15592;53.656;7.276;2023-05-10T15:56:10;13.60;99.90
28336;DHT22;15592;53.656;7.276;2023-05-10T15:58:37;13.60;99.90
28336;DHT22;15592;53.656;7.276;2023-05-10T16:01:03;13.50;99.90
28336;DHT22;15592;53.656;7.276;2023-05-10T16:03:30;13.50;99.90
28336;DHT22;15592;53.656;7.276;2023-05-10T16:05:56;13.40;99.90
28336;DHT22;15592;53.656;7.276;2023-05-10T16:08:22;13.40;99.90
28336;DHT22;15592;53.656;7.276;2023-05-10T16:10:49;13.40;99.90